BAW782F EGLL-ENGM
Flight info
| Callsign | BAW782F |
|---|---|
| Flight time | 1h 36m |
| Altitude | 39000 |
| Route | BPK7G BPK Q295 MATCH P144 SAMHO DCT LARGA DCT INBOB M604 DANKO DCT PIPEX DCT ULMUG DCT RIPAM RIPAM3L |
| Aircraft | A320/M-SDE3FGIJ1KRWXY/SB1 |
Departure
| Time | 2026-05-04 12:24 |
|---|---|
| Airport | London Heathrow Airport (EGLL) |
Arrival
| Time | 2026-05-04 14:00 |
|---|---|
| Airport | Oslo-Gardermoen International Airport (ENGM) |
| Time | Latitude | Longitude | Altitude | Speed | Heading |
|---|---|---|---|---|---|
| 2026-05-04 11:40 | 51.46899 | -0.45938 | 86 ft | 0 kts | 55° |
| 2026-05-04 12:10 | 51.46896 | -0.45945 | 86 ft | 4 kts | 55° |
| 2026-05-04 12:10 | 51.46882 | -0.45977 | 88 ft | 1 kts | 55° |
| 2026-05-04 12:10 | 51.46872 | -0.46009 | 87 ft | 4 kts | 87° |
| 2026-05-04 12:10 | 51.46879 | -0.46042 | 89 ft | 3 kts | 145° |
| 2026-05-04 12:11 | 51.46865 | -0.46026 | 87 ft | 4 kts | 145° |
| 2026-05-04 12:11 | 51.46857 | -0.46018 | 88 ft | 0 kts | 145° |
| 2026-05-04 12:16 | 51.46854 | -0.46015 | 88 ft | 1 kts | 145° |
| 2026-05-04 12:16 | 51.46824 | -0.45990 | 87 ft | 9 kts | 165° |
| 2026-05-04 12:17 | 51.46752 | -0.45951 | 88 ft | 12 kts | 116° |
| 2026-05-04 12:17 | 51.46748 | -0.45805 | 86 ft | 14 kts | 90° |
| 2026-05-04 12:17 | 51.46749 | -0.45639 | 86 ft | 16 kts | 89° |
| 2026-05-04 12:17 | 51.46750 | -0.45456 | 86 ft | 17 kts | 89° |
| 2026-05-04 12:18 | 51.46750 | -0.45252 | 86 ft | 19 kts | 90° |
| 2026-05-04 12:18 | 51.46750 | -0.45031 | 86 ft | 21 kts | 89° |
| 2026-05-04 12:18 | 51.46752 | -0.44793 | 87 ft | 22 kts | 89° |
| 2026-05-04 12:18 | 51.46753 | -0.44540 | 86 ft | 23 kts | 90° |
| 2026-05-04 12:19 | 51.46754 | -0.44273 | 86 ft | 25 kts | 89° |
| 2026-05-04 12:19 | 51.46756 | -0.44070 | 86 ft | 8 kts | 84° |
| 2026-05-04 12:19 | 51.46770 | -0.43976 | 86 ft | 10 kts | 82° |
| 2026-05-04 12:19 | 51.46770 | -0.43857 | 86 ft | 12 kts | 90° |
| 2026-05-04 12:20 | 51.46771 | -0.43716 | 86 ft | 14 kts | 89° |
| 2026-05-04 12:20 | 51.46772 | -0.43554 | 88 ft | 15 kts | 89° |
| 2026-05-04 12:20 | 51.46752 | -0.43463 | 88 ft | 6 kts | 136° |
| 2026-05-04 12:20 | 51.46706 | -0.43437 | 88 ft | 8 kts | 173° |
| 2026-05-04 12:21 | 51.46647 | -0.43436 | 89 ft | 9 kts | 180° |
| 2026-05-04 12:21 | 51.46579 | -0.43436 | 88 ft | 10 kts | 180° |
| 2026-05-04 12:21 | 51.46523 | -0.43437 | 89 ft | 7 kts | 180° |
| 2026-05-04 12:21 | 51.46498 | -0.43482 | 87 ft | 7 kts | 260° |
| 2026-05-04 12:22 | 51.46495 | -0.43520 | 87 ft | 0 kts | 268° |
| 2026-05-04 12:22 | 51.46495 | -0.43524 | 87 ft | 3 kts | 268° |
| 2026-05-04 12:23 | 51.46494 | -0.43786 | 86 ft | 58 kts | 270° |
| 2026-05-04 12:23 | 51.46492 | -0.44809 | 89 ft | 122 kts | 270° |
| 2026-05-04 12:23 | 51.46485 | -0.46455 | 90 ft | 170 kts | 269° |
| 2026-05-04 12:23 | 51.46475 | -0.48443 | 554 ft | 181 kts | 271° |
| 2026-05-04 12:24 | 51.46535 | -0.50441 | 1313 ft | 180 kts | 283° |
| 2026-05-04 12:24 | 51.47006 | -0.52379 | 1821 ft | 197 kts | 298° |
| 2026-05-04 12:24 | 51.47668 | -0.54443 | 2114 ft | 220 kts | 298° |
| 2026-05-04 12:24 | 51.48409 | -0.56748 | 2472 ft | 245 kts | 298° |
| 2026-05-04 12:25 | 51.49205 | -0.59229 | 3049 ft | 259 kts | 298° |
| 2026-05-04 12:25 | 51.50037 | -0.61834 | 3858 ft | 264 kts | 297° |
| 2026-05-04 12:25 | 51.50212 | -0.62365 | 4026 ft | 265 kts | 299° |
| 2026-05-04 12:25 | 51.51328 | -0.64441 | 4649 ft | 271 kts | 327° |
| 2026-05-04 12:26 | 51.53121 | -0.65310 | 5541 ft | 276 kts | 359° |
| 2026-05-04 12:26 | 51.55029 | -0.64914 | 5910 ft | 277 kts | 19° |
| 2026-05-04 12:26 | 51.56702 | -0.63373 | 6639 ft | 280 kts | 40° |
| 2026-05-04 12:26 | 51.58012 | -0.61033 | 7387 ft | 284 kts | 54° |
| 2026-05-04 12:27 | 51.59200 | -0.58451 | 8157 ft | 288 kts | 53° |
| 2026-05-04 12:27 | 51.60412 | -0.55859 | 8940 ft | 292 kts | 53° |
| 2026-05-04 12:27 | 51.61647 | -0.53241 | 9670 ft | 296 kts | 53° |
| 2026-05-04 12:27 | 51.62765 | -0.50438 | 9960 ft | 299 kts | 64° |
| 2026-05-04 12:28 | 51.63701 | -0.47446 | 10029 ft | 299 kts | 63° |
| 2026-05-04 12:28 | 51.64686 | -0.44487 | 10061 ft | 313 kts | 61° |
| 2026-05-04 12:28 | 51.65803 | -0.41317 | 10286 ft | 336 kts | 60° |
| 2026-05-04 12:28 | 51.67006 | -0.37975 | 10598 ft | 351 kts | 60° |
| 2026-05-04 12:29 | 51.68246 | -0.34550 | 11174 ft | 356 kts | 60° |
| 2026-05-04 12:29 | 51.69497 | -0.31085 | 11800 ft | 360 kts | 60° |
| 2026-05-04 12:29 | 51.70754 | -0.27574 | 12436 ft | 363 kts | 60° |
| 2026-05-04 12:29 | 51.72015 | -0.24027 | 13049 ft | 367 kts | 61° |
| 2026-05-04 12:30 | 51.73283 | -0.20431 | 13693 ft | 371 kts | 61° |
| 2026-05-04 12:30 | 51.74559 | -0.16798 | 14277 ft | 374 kts | 61° |
| 2026-05-04 12:30 | 51.75847 | -0.13126 | 14826 ft | 377 kts | 61° |
| 2026-05-04 12:30 | 51.77148 | -0.09429 | 15364 ft | 380 kts | 61° |
| 2026-05-04 12:31 | 51.78456 | -0.05708 | 15908 ft | 383 kts | 61° |
| 2026-05-04 12:31 | 51.79773 | -0.01951 | 16445 ft | 385 kts | 61° |
| 2026-05-04 12:31 | 51.81097 | 0.01828 | 16967 ft | 388 kts | 61° |
| 2026-05-04 12:31 | 51.82431 | 0.05640 | 17491 ft | 392 kts | 61° |
| 2026-05-04 12:32 | 51.83777 | 0.09495 | 17988 ft | 394 kts | 61° |
| 2026-05-04 12:32 | 51.86468 | 0.17232 | 18951 ft | 400 kts | 61° |
| 2026-05-04 12:32 | 51.87838 | 0.21177 | 19413 ft | 403 kts | 62° |
| 2026-05-04 12:33 | 51.89216 | 0.25159 | 19893 ft | 406 kts | 62° |
| 2026-05-04 12:33 | 51.90602 | 0.29165 | 20358 ft | 409 kts | 62° |
| 2026-05-04 12:33 | 51.91995 | 0.33198 | 20820 ft | 412 kts | 62° |
| 2026-05-04 12:33 | 51.93397 | 0.37267 | 21260 ft | 415 kts | 62° |
| 2026-05-04 12:34 | 51.94810 | 0.41369 | 21689 ft | 418 kts | 62° |
| 2026-05-04 12:34 | 51.96232 | 0.45495 | 22111 ft | 420 kts | 62° |
| 2026-05-04 12:34 | 51.97658 | 0.49646 | 22508 ft | 423 kts | 62° |
| 2026-05-04 12:34 | 51.99093 | 0.53833 | 22898 ft | 426 kts | 62° |
| 2026-05-04 12:35 | 52.00544 | 0.58055 | 23298 ft | 429 kts | 60° |
| 2026-05-04 12:35 | 52.02252 | 0.62042 | 23676 ft | 433 kts | 50° |
| 2026-05-04 12:35 | 52.04366 | 0.65551 | 23980 ft | 436 kts | 40° |
| 2026-05-04 12:35 | 52.06798 | 0.68504 | 24302 ft | 439 kts | 34° |
| 2026-05-04 12:36 | 52.09278 | 0.71321 | 24616 ft | 442 kts | 34° |
| 2026-05-04 12:36 | 52.11800 | 0.74199 | 24932 ft | 444 kts | 34° |
| 2026-05-04 12:36 | 52.14336 | 0.77101 | 25247 ft | 447 kts | 34° |
| 2026-05-04 12:36 | 52.16889 | 0.80027 | 25556 ft | 450 kts | 34° |
| 2026-05-04 12:37 | 52.19454 | 0.82976 | 25867 ft | 452 kts | 34° |
| 2026-05-04 12:37 | 52.22035 | 0.85953 | 26174 ft | 455 kts | 35° |
| 2026-05-04 12:37 | 52.24626 | 0.88944 | 26476 ft | 458 kts | 34° |
| 2026-05-04 12:37 | 52.27241 | 0.91961 | 26798 ft | 460 kts | 34° |
| 2026-05-04 12:38 | 52.29864 | 0.94993 | 27128 ft | 463 kts | 34° |
| 2026-05-04 12:38 | 52.32491 | 0.98037 | 27488 ft | 464 kts | 34° |
| 2026-05-04 12:38 | 52.35135 | 1.01100 | 27771 ft | 467 kts | 34° |
| 2026-05-04 12:38 | 52.37796 | 1.04185 | 28105 ft | 469 kts | 34° |
| 2026-05-04 12:39 | 52.40464 | 1.07283 | 28529 ft | 469 kts | 34° |
| 2026-05-04 12:39 | 52.43089 | 1.10334 | 28967 ft | 469 kts | 34° |
| 2026-05-04 12:39 | 52.45780 | 1.13469 | 29407 ft | 468 kts | 34° |
| 2026-05-04 12:39 | 52.48399 | 1.16531 | 29837 ft | 468 kts | 34° |
| 2026-05-04 12:40 | 52.51049 | 1.19632 | 30246 ft | 468 kts | 34° |
| 2026-05-04 12:40 | 52.53696 | 1.22734 | 30680 ft | 466 kts | 34° |
| 2026-05-04 12:40 | 52.56324 | 1.25822 | 31191 ft | 463 kts | 34° |
| 2026-05-04 12:40 | 52.58935 | 1.28899 | 31667 ft | 460 kts | 35° |
| 2026-05-04 12:41 | 52.61536 | 1.31965 | 32117 ft | 458 kts | 35° |
| 2026-05-04 12:41 | 52.64121 | 1.35008 | 32566 ft | 456 kts | 35° |
| 2026-05-04 12:41 | 52.66696 | 1.38041 | 33007 ft | 454 kts | 35° |
| 2026-05-04 12:41 | 52.69260 | 1.41071 | 33444 ft | 453 kts | 35° |
| 2026-05-04 12:42 | 52.71814 | 1.44094 | 33868 ft | 451 kts | 36° |
| 2026-05-04 12:42 | 52.74359 | 1.47114 | 34226 ft | 450 kts | 36° |
| 2026-05-04 12:42 | 52.76903 | 1.50136 | 34573 ft | 448 kts | 36° |
| 2026-05-04 12:42 | 52.79421 | 1.53128 | 34934 ft | 446 kts | 35° |
| 2026-05-04 12:43 | 52.81942 | 1.56125 | 35177 ft | 446 kts | 35° |
| 2026-05-04 12:43 | 52.84459 | 1.59121 | 35434 ft | 446 kts | 35° |
| 2026-05-04 12:43 | 52.86977 | 1.62129 | 35695 ft | 446 kts | 35° |
| 2026-05-04 12:43 | 52.89491 | 1.65141 | 35954 ft | 446 kts | 36° |
| 2026-05-04 12:44 | 52.92003 | 1.68150 | 36216 ft | 446 kts | 36° |
| 2026-05-04 12:44 | 52.94515 | 1.71161 | 36471 ft | 445 kts | 35° |
| 2026-05-04 12:44 | 52.96994 | 1.74131 | 36709 ft | 445 kts | 36° |
| 2026-05-04 12:44 | 52.99503 | 1.77145 | 36957 ft | 445 kts | 36° |
| 2026-05-04 12:45 | 53.02015 | 1.80173 | 37036 ft | 447 kts | 36° |
| 2026-05-04 12:45 | 53.07103 | 1.86321 | 37035 ft | 454 kts | 36° |
| 2026-05-04 12:46 | 53.12216 | 1.92499 | 37036 ft | 455 kts | 36° |
| 2026-05-04 12:46 | 53.17351 | 1.98748 | 37039 ft | 461 kts | 36° |
| 2026-05-04 12:47 | 53.22574 | 2.05113 | 37025 ft | 466 kts | 36° |
| 2026-05-04 12:47 | 53.27838 | 2.11493 | 37039 ft | 467 kts | 34° |
| 2026-05-04 12:48 | 53.33201 | 2.17602 | 37039 ft | 467 kts | 33° |
| 2026-05-04 12:48 | 53.38610 | 2.23634 | 37042 ft | 467 kts | 33° |
| 2026-05-04 12:49 | 53.43093 | 2.28693 | 37042 ft | 467 kts | 33° |
| 2026-05-04 12:49 | 53.49324 | 2.35871 | 37044 ft | 467 kts | 34° |
| 2026-05-04 12:50 | 53.54558 | 2.42352 | 37048 ft | 467 kts | 37° |
| 2026-05-04 12:50 | 53.58882 | 2.47931 | 37052 ft | 467 kts | 37° |
| 2026-05-04 12:51 | 53.64050 | 2.54570 | 37051 ft | 467 kts | 36° |
| 2026-05-04 12:51 | 53.69216 | 2.61119 | 37049 ft | 467 kts | 36° |
| 2026-05-04 12:52 | 53.74425 | 2.67704 | 37048 ft | 468 kts | 36° |
| 2026-05-04 12:52 | 53.79625 | 2.74318 | 37053 ft | 467 kts | 36° |
| 2026-05-04 12:53 | 53.84808 | 2.80961 | 37059 ft | 467 kts | 36° |
| 2026-05-04 12:53 | 53.89987 | 2.87601 | 37058 ft | 467 kts | 36° |
| 2026-05-04 12:54 | 53.95162 | 2.94261 | 37061 ft | 467 kts | 36° |
| 2026-05-04 12:54 | 54.00326 | 3.00928 | 37072 ft | 466 kts | 37° |
| 2026-05-04 12:55 | 54.05482 | 3.07614 | 37080 ft | 465 kts | 37° |
| 2026-05-04 12:55 | 54.10621 | 3.14299 | 37077 ft | 465 kts | 37° |
| 2026-05-04 12:56 | 54.15764 | 3.20993 | 37059 ft | 465 kts | 36° |
| 2026-05-04 12:56 | 54.20903 | 3.27712 | 37070 ft | 465 kts | 37° |
| 2026-05-04 12:57 | 54.26032 | 3.34455 | 37073 ft | 465 kts | 37° |
| 2026-05-04 12:57 | 54.31160 | 3.41210 | 37079 ft | 465 kts | 37° |
| 2026-05-04 12:58 | 54.36282 | 3.47966 | 37073 ft | 465 kts | 37° |
| 2026-05-04 12:58 | 54.41397 | 3.54741 | 37072 ft | 464 kts | 37° |
| 2026-05-04 12:59 | 54.46508 | 3.61544 | 37083 ft | 464 kts | 37° |
| 2026-05-04 12:59 | 54.51571 | 3.68302 | 37084 ft | 463 kts | 37° |
| 2026-05-04 13:00 | 54.56662 | 3.75112 | 37083 ft | 463 kts | 37° |
| 2026-05-04 13:00 | 54.61746 | 3.81933 | 37074 ft | 463 kts | 37° |
| 2026-05-04 13:01 | 54.66828 | 3.88775 | 37063 ft | 464 kts | 37° |
| 2026-05-04 13:01 | 54.71912 | 3.95632 | 37075 ft | 464 kts | 37° |
| 2026-05-04 13:02 | 54.76986 | 4.02510 | 37080 ft | 463 kts | 37° |
| 2026-05-04 13:02 | 54.82549 | 4.10093 | 37079 ft | 463 kts | 37° |
| 2026-05-04 13:03 | 54.87702 | 4.16823 | 37073 ft | 461 kts | 31° |
| 2026-05-04 13:03 | 54.93103 | 4.22844 | 37066 ft | 461 kts | 31° |
| 2026-05-04 13:04 | 54.98502 | 4.28876 | 37076 ft | 461 kts | 31° |
| 2026-05-04 13:04 | 55.03899 | 4.34920 | 37074 ft | 461 kts | 31° |
| 2026-05-04 13:05 | 55.09243 | 4.40944 | 37065 ft | 461 kts | 31° |
| 2026-05-04 13:05 | 55.14622 | 4.47053 | 37058 ft | 461 kts | 31° |
| 2026-05-04 13:06 | 55.20004 | 4.53174 | 37071 ft | 461 kts | 31° |
| 2026-05-04 13:06 | 55.25386 | 4.59306 | 37055 ft | 461 kts | 31° |
| 2026-05-04 13:07 | 55.30773 | 4.65448 | 37055 ft | 462 kts | 31° |
| 2026-05-04 13:07 | 55.36156 | 4.71601 | 37065 ft | 462 kts | 31° |
| 2026-05-04 13:08 | 55.40627 | 4.76732 | 37052 ft | 462 kts | 31° |
| 2026-05-04 13:08 | 55.46008 | 4.82934 | 37070 ft | 462 kts | 31° |
| 2026-05-04 13:09 | 55.52259 | 4.90174 | 37064 ft | 462 kts | 31° |
| 2026-05-04 13:09 | 55.56759 | 4.95412 | 37063 ft | 462 kts | 31° |
| 2026-05-04 13:10 | 55.62098 | 5.01636 | 37053 ft | 462 kts | 31° |
| 2026-05-04 13:10 | 55.67470 | 5.07906 | 37054 ft | 462 kts | 31° |
| 2026-05-04 13:11 | 55.72839 | 5.14199 | 37061 ft | 463 kts | 31° |
| 2026-05-04 13:11 | 55.78208 | 5.20519 | 37059 ft | 463 kts | 31° |
| 2026-05-04 13:12 | 55.83578 | 5.26842 | 37054 ft | 463 kts | 31° |
| 2026-05-04 13:12 | 55.88944 | 5.33205 | 37051 ft | 463 kts | 31° |
| 2026-05-04 13:13 | 55.99829 | 5.46184 | 37045 ft | 463 kts | 31° |
| 2026-05-04 13:14 | 56.05189 | 5.52590 | 37044 ft | 463 kts | 31° |
| 2026-05-04 13:14 | 56.10535 | 5.59009 | 37022 ft | 462 kts | 31° |
| 2026-05-04 13:15 | 56.15880 | 5.65435 | 37032 ft | 463 kts | 31° |
| 2026-05-04 13:15 | 56.21223 | 5.71891 | 37019 ft | 463 kts | 31° |
| 2026-05-04 13:16 | 56.26575 | 5.78378 | 37029 ft | 465 kts | 31° |
| 2026-05-04 13:16 | 56.31935 | 5.84907 | 37027 ft | 465 kts | 31° |
| 2026-05-04 13:17 | 56.37284 | 5.91453 | 37026 ft | 465 kts | 32° |
| 2026-05-04 13:17 | 56.42634 | 5.98029 | 37023 ft | 465 kts | 32° |
| 2026-05-04 13:18 | 56.47991 | 6.04596 | 37038 ft | 465 kts | 31° |
| 2026-05-04 13:18 | 56.53308 | 6.11150 | 37036 ft | 466 kts | 31° |
| 2026-05-04 13:19 | 56.58663 | 6.17787 | 37023 ft | 466 kts | 31° |
| 2026-05-04 13:19 | 56.64008 | 6.24428 | 37023 ft | 466 kts | 31° |
| 2026-05-04 13:20 | 56.69352 | 6.31094 | 37034 ft | 466 kts | 31° |
| 2026-05-04 13:20 | 56.74698 | 6.37788 | 37020 ft | 467 kts | 31° |
| 2026-05-04 13:21 | 56.80046 | 6.44504 | 37011 ft | 467 kts | 31° |
| 2026-05-04 13:21 | 56.85362 | 6.51205 | 37005 ft | 467 kts | 31° |
| 2026-05-04 13:22 | 56.90716 | 6.57969 | 36993 ft | 468 kts | 31° |
| 2026-05-04 13:22 | 56.96065 | 6.64770 | 37011 ft | 468 kts | 31° |
| 2026-05-04 13:23 | 57.01427 | 6.71589 | 36994 ft | 469 kts | 30° |
| 2026-05-04 13:23 | 57.06875 | 6.78174 | 36989 ft | 468 kts | 28° |
| 2026-05-04 13:24 | 57.12377 | 6.84625 | 36983 ft | 469 kts | 28° |
| 2026-05-04 13:24 | 57.17860 | 6.91138 | 36980 ft | 469 kts | 29° |
| 2026-05-04 13:25 | 57.26057 | 7.01074 | 36981 ft | 471 kts | 29° |
| 2026-05-04 13:25 | 57.31491 | 7.07692 | 36968 ft | 471 kts | 29° |
| 2026-05-04 13:26 | 57.36969 | 7.14368 | 36965 ft | 472 kts | 29° |
| 2026-05-04 13:26 | 57.42448 | 7.21067 | 36957 ft | 472 kts | 29° |
| 2026-05-04 13:27 | 57.47932 | 7.27809 | 36975 ft | 473 kts | 29° |
| 2026-05-04 13:27 | 57.53422 | 7.34579 | 36954 ft | 473 kts | 29° |
| 2026-05-04 13:28 | 57.58919 | 7.41370 | 36953 ft | 474 kts | 29° |
| 2026-05-04 13:28 | 57.64416 | 7.48190 | 36945 ft | 475 kts | 29° |
| 2026-05-04 13:29 | 57.69913 | 7.55047 | 36938 ft | 475 kts | 29° |
| 2026-05-04 13:29 | 57.75376 | 7.61881 | 36948 ft | 476 kts | 29° |
| 2026-05-04 13:30 | 57.80879 | 7.68792 | 36922 ft | 476 kts | 29° |
| 2026-05-04 13:30 | 57.86393 | 7.75728 | 36920 ft | 477 kts | 29° |
| 2026-05-04 13:31 | 57.91902 | 7.82701 | 36897 ft | 477 kts | 29° |
| 2026-05-04 13:31 | 57.97405 | 7.89695 | 36922 ft | 478 kts | 28° |
| 2026-05-04 13:32 | 58.02917 | 7.96724 | 36882 ft | 479 kts | 29° |
| 2026-05-04 13:32 | 58.08438 | 8.03788 | 36865 ft | 479 kts | 29° |
| 2026-05-04 13:33 | 58.13922 | 8.10824 | 36862 ft | 480 kts | 29° |
| 2026-05-04 13:33 | 58.19443 | 8.17934 | 36867 ft | 480 kts | 29° |
| 2026-05-04 13:34 | 58.24984 | 8.25114 | 36892 ft | 481 kts | 29° |
| 2026-05-04 13:34 | 58.30514 | 8.32296 | 36870 ft | 482 kts | 29° |
| 2026-05-04 13:35 | 58.38821 | 8.43121 | 36847 ft | 482 kts | 29° |
| 2026-05-04 13:36 | 58.44354 | 8.50371 | 36829 ft | 483 kts | 29° |
| 2026-05-04 13:36 | 58.49856 | 8.57616 | 36829 ft | 483 kts | 29° |
| 2026-05-04 13:37 | 58.55424 | 8.64988 | 36825 ft | 484 kts | 29° |
| 2026-05-04 13:37 | 58.60917 | 8.72288 | 36825 ft | 482 kts | 29° |
| 2026-05-04 13:37 | 58.62769 | 8.74750 | 36627 ft | 478 kts | 29° |
| 2026-05-04 13:38 | 58.66437 | 8.79625 | 35291 ft | 490 kts | 29° |
| 2026-05-04 13:38 | 58.69260 | 8.83388 | 34567 ft | 492 kts | 29° |
| 2026-05-04 13:38 | 58.72057 | 8.87134 | 34001 ft | 490 kts | 29° |
| 2026-05-04 13:38 | 58.74859 | 8.90896 | 33279 ft | 491 kts | 28° |
| 2026-05-04 13:39 | 58.77663 | 8.94656 | 32462 ft | 492 kts | 28° |
| 2026-05-04 13:39 | 58.80469 | 8.98441 | 31709 ft | 492 kts | 28° |
| 2026-05-04 13:39 | 58.83257 | 9.02224 | 31109 ft | 488 kts | 28° |
| 2026-05-04 13:39 | 58.86016 | 9.06028 | 30426 ft | 487 kts | 29° |
| 2026-05-04 13:40 | 58.88713 | 9.09982 | 29819 ft | 485 kts | 30° |
| 2026-05-04 13:40 | 58.91341 | 9.14030 | 29157 ft | 482 kts | 31° |
| 2026-05-04 13:40 | 58.93924 | 9.18118 | 28474 ft | 478 kts | 32° |
| 2026-05-04 13:40 | 58.96484 | 9.22199 | 27822 ft | 473 kts | 32° |
| 2026-05-04 13:41 | 58.98987 | 9.26165 | 27224 ft | 469 kts | 31° |
| 2026-05-04 13:41 | 59.01515 | 9.30138 | 26564 ft | 466 kts | 31° |
| 2026-05-04 13:41 | 59.04038 | 9.34062 | 25902 ft | 463 kts | 30° |
| 2026-05-04 13:42 | 59.09016 | 9.41770 | 24878 ft | 451 kts | 30° |
| 2026-05-04 13:42 | 59.11463 | 9.45569 | 24380 ft | 446 kts | 30° |
| 2026-05-04 13:42 | 59.13875 | 9.49325 | 23888 ft | 442 kts | 30° |
| 2026-05-04 13:42 | 59.16266 | 9.53065 | 23420 ft | 438 kts | 31° |
| 2026-05-04 13:43 | 59.18635 | 9.56746 | 22895 ft | 430 kts | 28° |
| 2026-05-04 13:43 | 59.21048 | 9.59923 | 22481 ft | 421 kts | 24° |
| 2026-05-04 13:43 | 59.23480 | 9.63044 | 22042 ft | 416 kts | 25° |
| 2026-05-04 13:43 | 59.25887 | 9.66137 | 21637 ft | 413 kts | 24° |
| 2026-05-04 13:44 | 59.28249 | 9.69182 | 21457 ft | 401 kts | 24° |
| 2026-05-04 13:44 | 59.30544 | 9.72154 | 21320 ft | 389 kts | 24° |
| 2026-05-04 13:44 | 59.32760 | 9.75064 | 21132 ft | 382 kts | 27° |
| 2026-05-04 13:44 | 59.34849 | 9.78304 | 20649 ft | 384 kts | 30° |
| 2026-05-04 13:45 | 59.36918 | 9.81573 | 20331 ft | 379 kts | 30° |
| 2026-05-04 13:45 | 59.38958 | 9.84815 | 19893 ft | 376 kts | 30° |
| 2026-05-04 13:45 | 59.40983 | 9.88037 | 19221 ft | 373 kts | 30° |
| 2026-05-04 13:45 | 59.42998 | 9.91252 | 18548 ft | 371 kts | 30° |
| 2026-05-04 13:46 | 59.44993 | 9.94443 | 17842 ft | 369 kts | 30° |
| 2026-05-04 13:46 | 59.46967 | 9.97608 | 17272 ft | 363 kts | 30° |
| 2026-05-04 13:46 | 59.48908 | 10.00730 | 16747 ft | 358 kts | 31° |
| 2026-05-04 13:46 | 59.50826 | 10.03817 | 16279 ft | 354 kts | 31° |
| 2026-05-04 13:47 | 59.52724 | 10.06873 | 15728 ft | 352 kts | 32° |
| 2026-05-04 13:47 | 59.54611 | 10.09916 | 15218 ft | 348 kts | 32° |
| 2026-05-04 13:47 | 59.56467 | 10.12914 | 14718 ft | 343 kts | 33° |
| 2026-05-04 13:47 | 59.58301 | 10.15881 | 14226 ft | 339 kts | 33° |
| 2026-05-04 13:48 | 59.60094 | 10.18781 | 13746 ft | 335 kts | 33° |
| 2026-05-04 13:48 | 59.61882 | 10.21677 | 13218 ft | 331 kts | 34° |
| 2026-05-04 13:48 | 59.63087 | 10.23630 | 12923 ft | 332 kts | 34° |
| 2026-05-04 13:48 | 59.65429 | 10.27428 | 12486 ft | 325 kts | 34° |
| 2026-05-04 13:49 | 59.66584 | 10.29306 | 12047 ft | 324 kts | 34° |
| 2026-05-04 13:49 | 59.68303 | 10.32112 | 11591 ft | 315 kts | 34° |
| 2026-05-04 13:49 | 59.69980 | 10.34858 | 11335 ft | 313 kts | 34° |
| 2026-05-04 13:49 | 59.71655 | 10.37601 | 11077 ft | 312 kts | 35° |
| 2026-05-04 13:50 | 59.73316 | 10.40329 | 10820 ft | 309 kts | 35° |
| 2026-05-04 13:50 | 59.74969 | 10.43046 | 10565 ft | 307 kts | 35° |
| 2026-05-04 13:50 | 59.76611 | 10.45751 | 10332 ft | 306 kts | 35° |
| 2026-05-04 13:50 | 59.78244 | 10.48443 | 10081 ft | 304 kts | 35° |
| 2026-05-04 13:51 | 59.79865 | 10.51110 | 9822 ft | 298 kts | 35° |
| 2026-05-04 13:51 | 59.81432 | 10.53703 | 9443 ft | 289 kts | 35° |
| 2026-05-04 13:51 | 59.82951 | 10.56229 | 9052 ft | 281 kts | 35° |
| 2026-05-04 13:51 | 59.84431 | 10.58688 | 8660 ft | 274 kts | 35° |
| 2026-05-04 13:52 | 59.87353 | 10.63530 | 7901 ft | 275 kts | 35° |
| 2026-05-04 13:52 | 59.88816 | 10.65962 | 7527 ft | 273 kts | 36° |
| 2026-05-04 13:52 | 59.90282 | 10.68406 | 7152 ft | 276 kts | 36° |
| 2026-05-04 13:53 | 59.91766 | 10.70880 | 6764 ft | 280 kts | 36° |
| 2026-05-04 13:53 | 59.93270 | 10.73389 | 6371 ft | 284 kts | 36° |
| 2026-05-04 13:53 | 59.94766 | 10.75888 | 6240 ft | 276 kts | 36° |
| 2026-05-04 13:54 | 59.97180 | 10.81542 | 5970 ft | 264 kts | 66° |
| 2026-05-04 13:54 | 59.97618 | 10.84994 | 5757 ft | 253 kts | 84° |
| 2026-05-04 13:54 | 59.97969 | 10.91989 | 4721 ft | 257 kts | 84° |
| 2026-05-04 13:55 | 59.98357 | 10.95375 | 4525 ft | 242 kts | 65° |
| 2026-05-04 13:55 | 60.00282 | 11.00247 | 4240 ft | 216 kts | 29° |
| 2026-05-04 13:55 | 60.01590 | 11.01591 | 4009 ft | 204 kts | 13° |
| 2026-05-04 13:56 | 60.02910 | 11.02359 | 3765 ft | 194 kts | 10° |
| 2026-05-04 13:56 | 60.04127 | 11.03060 | 3495 ft | 184 kts | 9° |
| 2026-05-04 13:56 | 60.06513 | 11.04423 | 3023 ft | 174 kts | 9° |
| 2026-05-04 13:57 | 60.07656 | 11.05077 | 2786 ft | 172 kts | 8° |
| 2026-05-04 13:57 | 60.08808 | 11.05736 | 2559 ft | 172 kts | 9° |
| 2026-05-04 13:58 | 60.12070 | 11.07613 | 1883 ft | 151 kts | 9° |
| 2026-05-04 13:58 | 60.14084 | 11.08767 | 1463 ft | 150 kts | 9° |
| 2026-05-04 13:58 | 60.15088 | 11.09344 | 1247 ft | 150 kts | 8° |
| 2026-05-04 13:59 | 60.16095 | 11.09926 | 1041 ft | 150 kts | 11° |
| 2026-05-04 13:59 | 60.17094 | 11.10499 | 818 ft | 149 kts | 12° |
| 2026-05-04 13:59 | 60.18823 | 11.11483 | 677 ft | 59 kts | 15° |
| 2026-05-04 14:00 | 60.19036 | 11.11619 | 680 ft | 0 kts | 18° |
| 2026-05-04 14:00 | 60.19106 | 11.11661 | 679 ft | 10 kts | 17° |
| 2026-05-04 14:00 | 60.19223 | 11.11698 | 679 ft | 21 kts | 8° |
| 2026-05-04 14:01 | 60.19355 | 11.11619 | 680 ft | 21 kts | 311° |
| 2026-05-04 14:01 | 60.19392 | 11.11439 | 680 ft | 10 kts | 287° |
| 2026-05-04 14:01 | 60.19326 | 11.11222 | 680 ft | 14 kts | 195° |
| 2026-05-04 14:02 | 60.19226 | 11.11165 | 679 ft | 16 kts | 196° |
| 2026-05-04 14:02 | 60.19169 | 11.11102 | 677 ft | 6 kts | 277° |
| 2026-05-04 14:02 | 60.19185 | 11.11006 | 678 ft | 7 kts | 304° |
| 2026-05-04 14:02 | 60.19231 | 11.11017 | 679 ft | 7 kts | 13° |
| 2026-05-04 14:03 | 60.19258 | 11.11030 | 679 ft | 0 kts | 13° |
| 2026-05-04 14:03 | 60.19257 | 11.11030 | 679 ft | 0 kts | 13° |